Time;durP1;ratioP1;P1;durP2;ratioP2;P2;SDS_P1;SDS_P2;PMS_P1;PMS_P2;Temp;Humidity;BMP_temperature;BMP_pressure;BME280_temperature;BME280_humidity;BME280_pressure;Samples;Min_cycle;Max_cycle;Signal;HPM_P1;HPM_P2
2021/10/14 00:00:09;;;;;;;0.40;0.20;;;4.70;99.90;;;;;;5090744;28;20397;-71
2021/10/14 00:02:35;;;;;;;0.40;0.20;;;4.60;99.90;;;;;;5091065;28;20838;-71
2021/10/14 00:05:01;;;;;;;0.40;0.30;;;4.70;99.90;;;;;;5090743;28;20385;-71
2021/10/14 00:07:27;;;;;;;0.50;0.50;;;4.90;99.90;;;;;;5091362;28;20384;-71
2021/10/14 00:09:52;;;;;;;0.40;0.30;;;4.70;99.90;;;;;;5091230;28;20417;-71
2021/10/14 00:12:18;;;;;;;0.40;0.20;;;5.00;99.90;;;;;;5090786;28;20477;-71
2021/10/14 00:14:43;;;;;;;0.40;0.20;;;4.50;99.90;;;;;;5090972;28;20501;-70
2021/10/14 00:17:09;;;;;;;0.40;0.20;;;4.50;99.90;;;;;;5090545;28;20374;-71
2021/10/14 00:19:35;;;;;;;0.40;0.30;;;4.60;99.90;;;;;;5091196;28;20378;-71
2021/10/14 00:22:00;;;;;;;0.40;0.30;;;4.60;99.90;;;;;;5090151;28;20745;-71
2021/10/14 00:24:26;;;;;;;0.40;0.20;;;4.50;99.90;;;;;;5091168;28;20436;-71
2021/10/14 00:26:52;;;;;;;0.40;0.20;;;4.50;99.90;;;;;;5090848;28;20382;-71
2021/10/14 00:29:17;;;;;;;0.40;0.20;;;4.60;99.90;;;;;;5089951;28;20405;-71
2021/10/14 00:31:43;;;;;;;0.40;0.20;;;4.60;99.90;;;;;;5091096;28;20375;-70
2021/10/14 00:34:09;;;;;;;0.40;0.20;;;4.70;99.90;;;;;;5090306;28;20931;-70
2021/10/14 00:36:34;;;;;;;0.40;0.20;;;4.80;99.90;;;;;;5090999;28;20366;-70
2021/10/14 00:39:00;;;;;;;0.70;0.60;;;4.70;99.90;;;;;;5088687;28;20421;-71
2021/10/14 00:41:25;;;;;;;0.40;0.20;;;4.80;99.90;;;;;;5090936;28;20846;-71
2021/10/14 00:43:56;;;;;;;0.40;0.30;;;4.90;99.90;;;;;;5090769;28;20378;-71
2021/10/14 00:46:22;;;;;;;0.40;0.30;;;4.60;99.90;;;;;;5090138;28;20390;-71
2021/10/14 00:48:47;;;;;;;0.40;0.30;;;4.50;99.90;;;;;;5089554;28;20393;-71
2021/10/14 00:51:13;;;;;;;0.40;0.30;;;4.50;99.90;;;;;;5089418;28;20381;-71
2021/10/14 00:53:39;;;;;;;0.40;0.20;;;4.40;99.90;;;;;;5090750;28;20374;-71
2021/10/14 00:56:08;;;;;;;0.40;0.30;;;4.40;99.90;;;;;;5089735;28;20736;-71
2021/10/14 00:58:35;;;;;;;0.40;0.20;;;4.50;99.90;;;;;;5090580;28;20465;-71
2021/10/14 01:01:02;;;;;;;0.40;0.30;;;4.30;99.90;;;;;;5089696;28;20432;-71
2021/10/14 01:03:28;;;;;;;0.40;0.20;;;4.50;99.90;;;;;;5090540;28;20373;-71
2021/10/14 01:05:54;;;;;;;0.40;0.20;;;4.20;99.90;;;;;;5090569;28;20453;-71
2021/10/14 01:08:19;;;;;;;0.40;0.30;;;4.30;99.90;;;;;;5089613;28;20393;-71
2021/10/14 01:10:45;;;;;;;0.65;0.40;;;4.30;99.90;;;;;;5089063;28;20382;-71
2021/10/14 01:13:11;;;;;;;0.40;0.20;;;4.80;99.90;;;;;;5088226;28;20469;-71
2021/10/14 01:15:37;;;;;;;0.40;0.30;;;4.30;99.90;;;;;;5090367;28;20413;-71
2021/10/14 01:18:03;;;;;;;0.40;0.30;;;4.30;99.90;;;;;;5089774;28;20386;-71
2021/10/14 01:20:29;;;;;;;0.40;0.20;;;4.50;99.90;;;;;;5090059;28;20455;-71
2021/10/14 01:22:56;;;;;;;0.40;0.20;;;4.20;99.90;;;;;;5088934;28;20401;-71
2021/10/14 01:25:23;;;;;;;0.40;0.20;;;4.30;99.90;;;;;;5089647;28;20382;-71
2021/10/14 01:27:49;;;;;;;0.40;0.40;;;4.30;99.90;;;;;;5090026;28;20378;-71
2021/10/14 01:30:15;;;;;;;0.40;0.25;;;4.30;99.90;;;;;;5089320;28;20427;-71
2021/10/14 01:32:41;;;;;;;0.40;0.20;;;4.30;99.90;;;;;;5090276;28;20373;-71
2021/10/14 01:35:07;;;;;;;0.40;0.20;;;4.10;99.90;;;;;;5088995;28;20421;-71
2021/10/14 01:37:33;;;;;;;0.40;0.20;;;4.10;99.90;;;;;;5090304;28;20380;-71
2021/10/14 01:39:59;;;;;;;0.40;0.30;;;4.20;99.90;;;;;;5089747;28;20374;-71
2021/10/14 01:42:26;;;;;;;0.40;0.20;;;4.00;99.90;;;;;;5089775;28;20381;-71
2021/10/14 01:44:51;;;;;;;0.40;0.20;;;4.00;99.90;;;;;;5089992;28;20386;-71
2021/10/14 01:47:17;;;;;;;0.40;0.20;;;4.00;99.90;;;;;;5089295;28;20541;-71
2021/10/14 01:49:43;;;;;;;0.40;0.20;;;4.10;99.90;;;;;;5090387;28;20439;-71
2021/10/14 01:52:08;;;;;;;0.40;0.20;;;4.10;99.90;;;;;;5088778;28;20608;-71
2021/10/14 01:54:34;;;;;;;0.40;0.20;;;4.10;99.90;;;;;;5090061;28;20405;-71
2021/10/14 01:57:00;;;;;;;0.40;0.20;;;3.40;99.90;;;;;;5089475;28;20386;-71
2021/10/14 01:59:25;;;;;;;0.40;0.20;;;4.10;99.90;;;;;;5090453;28;20389;-71
2021/10/14 02:01:51;;;;;;;0.40;0.20;;;4.10;99.90;;;;;;5093879;28;20413;-71
2021/10/14 02:04:17;;;;;;;0.40;0.20;;;3.70;99.90;;;;;;5093065;28;20845;-71
2021/10/14 02:06:42;;;;;;;0.40;0.20;;;4.00;99.90;;;;;;5093832;28;20378;-71
2021/10/14 02:09:08;;;;;;;0.40;0.40;;;4.00;99.90;;;;;;5093015;28;20381;-71
2021/10/14 02:11:33;;;;;;;0.40;0.20;;;4.10;99.90;;;;;;5093776;28;20378;-71
2021/10/14 02:13:59;;;;;;;0.40;0.20;;;4.00;99.90;;;;;;5093572;28;20382;-71
2021/10/14 02:16:25;;;;;;;0.40;0.20;;;4.20;99.90;;;;;;5093115;28;20449;-71
2021/10/14 02:18:50;;;;;;;0.40;0.30;;;4.10;99.90;;;;;;5093565;28;20378;-71
2021/10/14 02:21:17;;;;;;;0.40;0.20;;;4.00;99.90;;;;;;5092865;28;20381;-71
2021/10/14 02:23:43;;;;;;;0.80;0.70;;;4.00;99.90;;;;;;5093550;28;20431;-71
2021/10/14 02:26:09;;;;;;;0.40;0.20;;;3.90;99.90;;;;;;5092598;28;20842;-71
2021/10/14 02:28:34;;;;;;;0.40;0.20;;;4.00;99.90;;;;;;5093403;28;20382;-71
2021/10/14 02:31:00;;;;;;;0.40;0.20;;;4.10;99.90;;;;;;5093254;28;20865;-71
2021/10/14 02:33:26;;;;;;;0.40;0.20;;;4.10;99.90;;;;;;5092664;28;20375;-71
2021/10/14 02:35:51;;;;;;;0.40;0.20;;;4.20;99.90;;;;;;5092921;28;20402;-71
2021/10/14 02:38:17;;;;;;;0.40;0.20;;;4.70;99.90;;;;;;5092387;28;20374;-71
2021/10/14 02:40:43;;;;;;;0.40;0.30;;;3.60;99.90;;;;;;5091816;28;20385;-71
2021/10/14 02:43:08;;;;;;;0.40;0.30;;;4.00;99.90;;;;;;5092440;28;20738;-71
2021/10/14 02:45:34;;;;;;;0.40;0.30;;;4.00;99.90;;;;;;5093026;28;20378;-71
2021/10/14 02:48:00;;;;;;;0.40;0.30;;;4.10;99.90;;;;;;5093105;28;20414;-71
2021/10/14 02:50:25;;;;;;;0.40;0.20;;;4.20;99.90;;;;;;5092170;28;20378;-71
2021/10/14 02:52:51;;;;;;;0.40;0.20;;;4.10;99.90;;;;;;5093090;28;20445;-71
2021/10/14 02:55:17;;;;;;;0.40;0.20;;;4.10;99.90;;;;;;5092153;28;20558;-70
2021/10/14 02:57:42;;;;;;;2.20;0.70;;;4.20;99.90;;;;;;5092965;28;20389;-71
2021/10/14 03:00:08;;;;;;;0.40;0.20;;;4.10;99.90;;;;;;5092140;28;20406;-71
2021/10/14 03:02:34;;;;;;;0.40;0.30;;;4.10;99.90;;;;;;5092761;28;20707;-71
2021/10/14 03:04:59;;;;;;;0.40;0.20;;;4.00;99.90;;;;;;5092308;28;20476;-71
2021/10/14 03:07:25;;;;;;;0.40;0.30;;;4.10;99.90;;;;;;5092010;28;20466;-71
2021/10/14 03:09:51;;;;;;;0.40;0.30;;;4.00;99.90;;;;;;5092542;28;20449;-71
2021/10/14 03:12:16;;;;;;;0.40;0.20;;;4.00;99.90;;;;;;5091023;28;20389;-71
2021/10/14 03:14:42;;;;;;;0.40;0.20;;;3.90;99.90;;;;;;5092208;28;20406;-71
2021/10/14 03:17:09;;;;;;;0.40;0.20;;;3.70;99.90;;;;;;5090429;28;20390;-71
2021/10/14 03:19:35;;;;;;;0.40;0.20;;;4.30;99.90;;;;;;5091974;28;20386;-71
2021/10/14 03:22:01;;;;;;;0.40;0.20;;;3.80;99.90;;;;;;5090799;28;20937;-71
2021/10/14 03:24:27;;;;;;;0.40;0.30;;;3.80;99.90;;;;;;5091230;28;20971;-71
2021/10/14 03:26:52;;;;;;;0.40;0.30;;;3.80;99.90;;;;;;5092354;28;20435;-71
2021/10/14 03:29:18;;;;;;;0.40;0.20;;;3.70;99.90;;;;;;5091477;28;20370;-71
2021/10/14 03:31:44;;;;;;;0.40;0.20;;;3.70;99.90;;;;;;5092407;28;20381;-71
2021/10/14 03:34:09;;;;;;;0.40;0.20;;;3.70;99.90;;;;;;5091327;28;20374;-71
2021/10/14 03:36:35;;;;;;;0.40;0.20;;;3.80;99.90;;;;;;5092202;28;20373;-71
2021/10/14 03:39:01;;;;;;;0.40;0.30;;;3.90;99.90;;;;;;5091846;28;20374;-71
2021/10/14 03:41:26;;;;;;;0.40;0.30;;;4.00;99.90;;;;;;5090880;28;20378;-71
2021/10/14 03:43:52;;;;;;;0.40;0.20;;;3.80;99.90;;;;;;5092260;28;20382;-71
2021/10/14 03:46:18;;;;;;;0.40;0.20;;;4.40;99.90;;;;;;5091062;28;20493;-71
2021/10/14 03:48:43;;;;;;;0.40;0.22;;;4.00;99.90;;;;;;5091916;28;20370;-71
2021/10/14 03:51:09;;;;;;;0.40;0.30;;;3.90;99.90;;;;;;5090835;28;20421;-72
2021/10/14 03:53:34;;;;;;;0.40;0.20;;;3.80;99.90;;;;;;5091776;28;20465;-71
2021/10/14 03:56:00;;;;;;;0.40;0.30;;;4.00;99.90;;;;;;5091656;28;20410;-71
2021/10/14 03:58:26;;;;;;;0.40;0.20;;;4.00;99.90;;;;;;5090736;28;20377;-71
2021/10/14 04:00:51;;;;;;;0.40;0.30;;;4.00;99.90;;;;;;5091746;28;20400;-71
2021/10/14 04:03:17;;;;;;;0.40;0.20;;;3.40;99.90;;;;;;5091477;28;20849;-71
2021/10/14 04:05:43;;;;;;;0.40;0.33;;;3.80;99.90;;;;;;5092116;28;20427;-71
2021/10/14 04:08:08;;;;;;;0.40;0.20;;;3.90;99.90;;;;;;5091758;28;20378;-72
2021/10/14 04:10:34;;;;;;;0.40;0.20;;;4.20;99.90;;;;;;5091477;28;20378;-71
2021/10/14 04:13:00;;;;;;;0.40;0.20;;;3.80;99.90;;;;;;5092178;28;20390;-71
2021/10/14 04:15:25;;;;;;;0.40;0.20;;;3.70;99.90;;;;;;5091021;28;20740;-70
2021/10/14 04:17:51;;;;;;;0.40;0.20;;;3.70;99.90;;;;;;5091764;28;20405;-70
2021/10/14 04:20:16;;;;;;;0.40;0.20;;;3.60;99.90;;;;;;5091371;28;20395;-71
2021/10/14 04:22:42;;;;;;;0.40;0.23;;;3.50;99.90;;;;;;5091698;28;20866;-71
2021/10/14 04:25:08;;;;;;;0.40;0.20;;;3.90;99.90;;;;;;5091633;28;20382;-71
2021/10/14 04:27:34;;;;;;;0.40;0.30;;;3.70;99.90;;;;;;5091316;28;20446;-71
2021/10/14 04:30:00;;;;;;;0.40;0.30;;;3.60;99.90;;;;;;5091753;28;20465;-71
2021/10/14 04:32:25;;;;;;;0.40;0.20;;;3.80;99.90;;;;;;5090574;28;20405;-71
2021/10/14 04:34:51;;;;;;;0.40;0.20;;;4.50;99.90;;;;;;5090290;28;20449;-71
2021/10/14 04:37:17;;;;;;;0.40;0.20;;;3.90;99.90;;;;;;5090773;28;20405;-71
2021/10/14 04:39:42;;;;;;;0.40;0.20;;;3.90;99.90;;;;;;5091728;28;20379;-72
2021/10/14 04:42:08;;;;;;;0.40;0.20;;;4.00;99.90;;;;;;5091457;28;20370;-71
2021/10/14 04:44:34;;;;;;;0.40;0.30;;;3.80;99.90;;;;;;5090746;28;20386;-72
2021/10/14 04:47:06;;;;;;;0.40;0.20;;;3.80;99.90;;;;;;5091362;28;20417;-71
2021/10/14 04:49:32;;;;;;;0.40;0.30;;;3.70;99.90;;;;;;5090840;28;20531;-72
2021/10/14 04:51:58;;;;;;;0.40;0.30;;;4.10;99.90;;;;;;5090936;28;20492;-72
2021/10/14 04:54:25;;;;;;;0.40;0.30;;;3.60;99.90;;;;;;5090319;28;20979;-72
2021/10/14 04:56:51;;;;;;;0.40;0.20;;;3.50;99.90;;;;;;5091289;28;20375;-71
2021/10/14 04:59:20;;;;;;;0.40;0.40;;;3.50;99.90;;;;;;5090735;28;20389;-71
2021/10/14 05:01:48;;;;;;;0.40;0.30;;;3.60;99.90;;;;;;5091986;28;20393;-72
2021/10/14 05:04:14;;;;;;;0.40;0.20;;;3.50;99.90;;;;;;5089669;28;20385;-72
2021/10/14 05:06:40;;;;;;;0.40;0.40;;;3.60;99.90;;;;;;5091053;28;20376;-72
2021/10/14 05:09:06;;;;;;;0.40;0.20;;;3.50;99.90;;;;;;5090843;28;20465;-72
2021/10/14 05:11:33;;;;;;;0.40;0.40;;;3.60;99.90;;;;;;5089830;28;20439;-71
2021/10/14 05:13:58;;;;;;;0.40;0.30;;;3.70;99.90;;;;;;5090811;28;20383;-71
2021/10/14 05:16:24;;;;;;;0.40;0.30;;;3.50;99.90;;;;;;5089628;28;20418;-71
2021/10/14 05:18:52;;;;;;;0.60;0.60;;;3.90;99.90;;;;;;5090424;28;20454;-71
2021/10/14 05:21:18;;;;;;;0.63;0.63;;;3.50;99.90;;;;;;5088551;28;20401;-71
2021/10/14 05:23:43;;;;;;;2.20;0.80;;;3.30;99.90;;;;;;5091081;28;20394;-71
2021/10/14 05:26:09;;;;;;;0.40;0.20;;;3.30;99.90;;;;;;5084921;28;20882;-70
2021/10/14 05:28:35;;;;;;;0.40;0.20;;;3.30;99.90;;;;;;5088171;28;20388;-71
2021/10/14 05:31:00;;;;;;;0.40;0.20;;;3.30;99.90;;;;;;5090535;28;20481;-71
2021/10/14 05:33:26;;;;;;;0.40;0.20;;;2.90;99.90;;;;;;5089215;28;20464;-71
2021/10/14 05:35:51;;;;;;;0.40;0.40;;;3.40;99.90;;;;;;5093991;28;20406;-71
2021/10/14 05:38:17;;;;;;;0.43;0.27;;;3.50;99.90;;;;;;5094122;28;20385;-71
2021/10/14 05:40:45;;;;;;;0.40;0.30;;;3.50;99.90;;;;;;5094427;28;20423;-71
2021/10/14 05:43:11;;;;;;;0.40;0.20;;;3.40;99.90;;;;;;5095183;28;20461;-72
2021/10/14 05:45:37;;;;;;;0.60;0.60;;;3.50;99.90;;;;;;5093433;28;20535;-71
2021/10/14 05:48:03;;;;;;;0.40;0.28;;;4.20;99.90;;;;;;5094601;28;20389;-71
2021/10/14 05:50:29;;;;;;;0.40;0.30;;;3.50;99.90;;;;;;5092188;28;20391;-71
2021/10/14 05:52:54;;;;;;;0.40;0.30;;;3.40;99.90;;;;;;5094286;28;20927;-71
2021/10/14 05:55:20;;;;;;;0.40;0.20;;;3.40;99.90;;;;;;5094094;28;20758;-71
2021/10/14 05:57:46;;;;;;;0.40;0.20;;;3.40;99.90;;;;;;5094595;28;20469;-71
2021/10/14 06:00:12;;;;;;;0.40;0.30;;;3.50;99.90;;;;;;5094918;28;20370;-70
2021/10/14 06:02:38;;;;;;;0.40;0.20;;;3.40;99.90;;;;;;5094200;28;20384;-71
2021/10/14 06:05:04;;;;;;;7.20;0.80;;;3.60;99.90;;;;;;5094889;28;20862;-70
2021/10/14 06:07:30;;;;;;;0.40;0.30;;;3.50;99.90;;;;;;5093828;28;20378;-70
2021/10/14 06:09:55;;;;;;;0.40;0.30;;;3.50;99.90;;;;;;5094763;28;20408;-70
2021/10/14 06:12:21;;;;;;;0.40;0.23;;;3.40;99.90;;;;;;5093923;28;20489;-70
2021/10/14 06:14:46;;;;;;;0.40;0.40;;;3.10;99.90;;;;;;5094555;28;20428;-70
2021/10/14 06:17:12;;;;;;;0.40;0.20;;;3.70;99.90;;;;;;5094574;28;20843;-70
2021/10/14 06:19:38;;;;;;;0.40;0.40;;;3.80;99.90;;;;;;5093914;28;20908;-70
2021/10/14 06:22:03;;;;;;;0.40;0.20;;;3.70;99.90;;;;;;5092966;28;20397;-70
2021/10/14 06:24:29;;;;;;;0.40;0.20;;;4.20;99.90;;;;;;5094227;28;20445;-70
2021/10/14 06:26:55;;;;;;;0.40;0.30;;;3.60;99.90;;;;;;5094374;28;20382;-70
2021/10/14 06:29:21;;;;;;;0.40;0.30;;;4.00;99.90;;;;;;5092426;28;20389;-70
2021/10/14 06:31:47;;;;;;;0.40;0.30;;;3.70;99.90;;;;;;5094211;28;20379;-70
2021/10/14 06:34:13;;;;;;;0.40;0.20;;;4.10;99.90;;;;;;5094213;28;20397;-70
2021/10/14 06:36:38;;;;;;;0.40;0.20;;;3.70;99.90;;;;;;5093311;28;20503;-70
2021/10/14 06:39:04;;;;;;;0.40;0.20;;;3.80;99.90;;;;;;5094123;28;20389;-70
2021/10/14 06:41:30;;;;;;;0.40;0.30;;;3.90;99.90;;;;;;5093338;28;20846;-70
2021/10/14 06:43:55;;;;;;;0.40;0.20;;;3.80;99.90;;;;;;5093991;28;20862;-70
2021/10/14 06:46:21;;;;;;;0.45;0.45;;;3.90;99.90;;;;;;5093307;28;20379;-71
2021/10/14 06:48:47;;;;;;;0.40;0.20;;;3.70;99.90;;;;;;5093990;28;20881;-71
2021/10/14 06:51:12;;;;;;;0.90;0.90;;;3.90;99.90;;;;;;5093478;28;20934;-71
2021/10/14 06:53:38;;;;;;;0.40;0.20;;;4.00;99.90;;;;;;5093248;28;20761;-71
2021/10/14 06:56:04;;;;;;;0.40;0.30;;;3.90;99.90;;;;;;5093789;28;20414;-71
2021/10/14 06:58:29;;;;;;;0.40;0.30;;;4.00;99.90;;;;;;5093142;28;20378;-71
2021/10/14 07:00:55;;;;;;;0.40;0.30;;;4.10;99.90;;;;;;5092612;28;20382;-71
2021/10/14 07:03:21;;;;;;;0.40;0.30;;;4.20;99.90;;;;;;5092951;28;20465;-71
2021/10/14 07:05:46;;;;;;;0.40;0.30;;;4.30;99.90;;;;;;5093260;28;20404;-71
2021/10/14 07:08:12;;;;;;;0.40;0.20;;;4.40;99.90;;;;;;5093878;28;20382;-71
2021/10/14 07:10:38;;;;;;;0.40;0.20;;;4.50;99.90;;;;;;5093059;28;20378;-71
2021/10/14 07:13:08;;;;;;;0.40;0.20;;;4.50;99.90;;;;;;5093449;28;20374;-71
2021/10/14 07:15:34;;;;;;;0.40;0.20;;;4.60;99.90;;;;;;5092773;28;20424;-71
2021/10/14 07:18:00;;;;;;;0.40;0.20;;;4.80;99.90;;;;;;5093396;28;20382;-71
2021/10/14 07:20:25;;;;;;;0.40;0.20;;;4.60;99.90;;;;;;5092830;28;20425;-71
2021/10/14 07:22:51;;;;;;;0.40;0.20;;;4.90;99.90;;;;;;5093579;28;20386;-71
2021/10/14 07:25:17;;;;;;;0.40;0.30;;;5.00;99.90;;;;;;5093320;28;20394;-71
2021/10/14 07:27:43;;;;;;;0.40;0.30;;;5.00;99.90;;;;;;5092597;28;20377;-71
2021/10/14 07:30:10;;;;;;;0.50;0.50;;;5.10;99.90;;;;;;5093233;28;20382;-71
2021/10/14 07:32:36;;;;;;;0.40;0.20;;;5.20;99.90;;;;;;5092503;28;20389;-71
2021/10/14 07:35:04;;;;;;;0.40;0.40;;;5.30;99.90;;;;;;5093003;28;20437;-71
2021/10/14 07:37:30;;;;;;;0.40;0.20;;;5.30;99.90;;;;;;5092490;28;20915;-71
2021/10/14 07:39:55;;;;;;;0.40;0.20;;;5.30;99.90;;;;;;5092751;28;20420;-71
2021/10/14 07:42:21;;;;;;;0.40;0.20;;;5.40;99.90;;;;;;5092496;28;20386;-71
2021/10/14 07:44:47;;;;;;;0.40;0.20;;;5.40;99.90;;;;;;5091517;28;20386;-72
2021/10/14 07:47:12;;;;;;;0.40;0.30;;;5.40;99.90;;;;;;5092779;28;20375;-71
2021/10/14 07:49:38;;;;;;;0.50;0.50;;;5.60;99.90;;;;;;5091907;28;20406;-71
2021/10/14 07:52:04;;;;;;;0.40;0.20;;;5.80;99.90;;;;;;5092712;28;20437;-71
2021/10/14 07:54:30;;;;;;;0.40;0.20;;;5.90;99.90;;;;;;5092045;28;20422;-71
2021/10/14 07:56:55;;;;;;;0.40;0.20;;;5.90;99.90;;;;;;5091958;28;20386;-71
2021/10/14 07:59:21;;;;;;;0.50;0.50;;;5.90;99.90;;;;;;5091852;28;20388;-70
2021/10/14 08:01:47;;;;;;;0.40;0.30;;;6.10;99.90;;;;;;5092309;28;20730;-71
2021/10/14 08:04:13;;;;;;;0.40;0.30;;;6.10;99.90;;;;;;5092713;28;20801;-70
2021/10/14 08:06:39;;;;;;;0.40;0.30;;;6.20;99.90;;;;;;5091898;28;20731;-71
2021/10/14 08:09:04;;;;;;;0.40;0.30;;;6.30;99.90;;;;;;5092789;28;20384;-70
2021/10/14 08:11:30;;;;;;;0.50;0.50;;;6.80;99.90;;;;;;5091506;28;20937;-71
2021/10/14 08:13:56;;;;;;;0.40;0.30;;;6.40;99.90;;;;;;5092221;28;20382;-70
2021/10/14 08:16:22;;;;;;;0.40;0.20;;;6.50;99.90;;;;;;5091815;28;20417;-71
2021/10/14 08:18:47;;;;;;;0.40;0.20;;;6.70;99.90;;;;;;5092574;28;20398;-70
2021/10/14 08:21:13;;;;;;;0.40;0.30;;;6.80;99.90;;;;;;5092355;28;20385;-70
2021/10/14 08:23:39;;;;;;;0.40;0.20;;;6.80;99.90;;;;;;5091477;28;20425;-71
2021/10/14 08:26:04;;;;;;;0.50;0.50;;;6.90;99.90;;;;;;5091747;28;20747;-71
2021/10/14 08:28:30;;;;;;;0.40;0.20;;;6.50;99.90;;;;;;5091480;28;20448;-70
2021/10/14 08:30:56;;;;;;;0.40;0.23;;;7.20;99.90;;;;;;5091667;28;20389;-71
2021/10/14 08:33:22;;;;;;;0.40;0.20;;;7.30;99.90;;;;;;5091925;28;20410;-70
2021/10/14 08:35:48;;;;;;;0.40;0.30;;;7.40;99.90;;;;;;5092059;28;20413;-70
2021/10/14 08:38:14;;;;;;;0.40;0.23;;;7.60;99.90;;;;;;5091756;28;20452;-70
2021/10/14 08:40:40;;;;;;;0.40;0.30;;;7.60;99.90;;;;;;5091252;28;20473;-70
2021/10/14 08:43:13;;;;;;;0.40;0.20;;;7.70;99.90;;;;;;5091607;28;20435;-71
2021/10/14 08:45:41;;;;;;;0.40;0.30;;;7.90;99.90;;;;;;5091238;28;20500;-70
2021/10/14 08:48:07;;;;;;;0.40;0.20;;;8.10;99.90;;;;;;5091891;28;20389;-70
2021/10/14 08:50:35;;;;;;;0.80;0.80;;;8.10;99.90;;;;;;5090978;28;20379;-70
2021/10/14 08:53:00;;;;;;;0.40;0.30;;;8.20;99.90;;;;;;5091215;28;20414;-71
2021/10/14 08:55:30;;;;;;;1.70;1.10;;;8.30;99.90;;;;;;5090877;28;20991;-70
2021/10/14 08:57:57;;;;;;;0.40;0.20;;;8.30;99.90;;;;;;5090325;28;20829;-70
2021/10/14 09:00:23;;;;;;;0.40;0.30;;;8.30;99.90;;;;;;5091748;28;20447;-70
2021/10/14 09:02:48;;;;;;;0.40;0.20;;;8.30;99.90;;;;;;5090939;28;20846;-70
2021/10/14 09:05:16;;;;;;;0.40;0.20;;;8.30;99.90;;;;;;5091372;28;20382;-70
2021/10/14 09:07:42;;;;;;;0.40;0.30;;;8.50;99.90;;;;;;5090561;28;20799;-70
2021/10/14 09:10:13;;;;;;;0.40;0.20;;;8.60;99.90;;;;;;5090544;28;20370;-70
2021/10/14 09:12:46;;;;;;;0.50;0.50;;;8.60;99.90;;;;;;5090864;28;20408;-70
2021/10/14 09:15:17;;;;;;;0.40;0.20;;;8.60;99.90;;;;;;5090077;28;20874;-70
2021/10/14 09:17:53;;;;;;;0.40;0.20;;;8.80;99.90;;;;;;5090823;28;20794;-70
2021/10/14 09:20:37;;;;;;;0.40;0.20;;;8.80;99.90;;;;;;5091691;28;20853;-70
2021/10/14 09:23:21;;;;;;;0.40;0.30;;;8.80;99.90;;;;;;5091492;28;20401;-70
2021/10/14 09:25:51;;;;;;;0.40;0.20;;;8.90;99.90;;;;;;5090708;28;20397;-71
2021/10/14 09:28:22;;;;;;;0.40;0.30;;;9.10;99.90;;;;;;5090987;28;20370;-70
2021/10/14 09:30:59;;;;;;;0.40;0.20;;;9.30;99.90;;;;;;5090408;28;20750;-71
2021/10/14 09:33:46;;;;;;;0.40;0.30;;;9.20;99.90;;;;;;5091291;28;20449;-71
2021/10/14 09:36:16;;;;;;;0.40;0.20;;;9.30;99.90;;;;;;5091170;28;20501;-71
2021/10/14 09:38:43;;;;;;;1.10;0.50;;;9.40;99.90;;;;;;5090556;28;20446;-70
2021/10/14 09:41:13;;;;;;;0.40;0.20;;;9.40;99.90;;;;;;5091004;28;20473;-71
2021/10/14 09:43:40;;;;;;;0.40;0.30;;;9.60;99.90;;;;;;5090556;28;20378;-70
2021/10/14 09:46:06;;;;;;;0.40;0.20;;;9.70;99.90;;;;;;5090672;28;20403;-71
2021/10/14 09:48:32;;;;;;;0.40;0.20;;;9.80;99.90;;;;;;5090191;28;20378;-71
2021/10/14 09:50:58;;;;;;;0.40;0.20;;;9.80;99.90;;;;;;5090803;28;20835;-71
2021/10/14 09:53:27;;;;;;;0.40;0.20;;;9.90;99.90;;;;;;5091180;28;20551;-71
2021/10/14 09:55:56;;;;;;;0.50;0.50;;;9.90;99.90;;;;;;5090448;28;20417;-71
2021/10/14 09:58:24;;;;;;;0.40;0.30;;;9.90;99.90;;;;;;5090888;28;20378;-71
2021/10/14 10:00:51;;;;;;;0.40;0.20;;;10.00;99.90;;;;;;5090179;28;20854;-71
2021/10/14 10:03:24;;;;;;;0.40;0.40;;;10.10;99.90;;;;;;5090907;28;20428;-71
2021/10/14 10:05:51;;;;;;;0.40;0.30;;;10.10;99.90;;;;;;5090109;28;20477;-71
2021/10/14 10:08:31;;;;;;;0.40;0.20;;;10.20;99.90;;;;;;5090828;28;20379;-71
2021/10/14 10:11:01;;;;;;;0.40;0.30;;;10.30;99.90;;;;;;5090875;28;20374;-71
2021/10/14 10:13:28;;;;;;;0.40;0.20;;;10.30;99.90;;;;;;5090859;28;20723;-71
2021/10/14 10:15:54;;;;;;;0.60;0.60;;;10.30;99.90;;;;;;5090301;28;20485;-71
2021/10/14 10:18:38;;;;;;;0.50;0.40;;;10.30;99.90;;;;;;5090429;28;20485;-72
2021/10/14 10:21:06;;;;;;;0.40;0.30;;;10.50;99.90;;;;;;5092792;28;20394;-71
2021/10/14 10:23:46;;;;;;;0.40;0.35;;;10.40;99.90;;;;;;5093766;28;20412;-72
2021/10/14 10:26:36;;;;;;;0.80;0.60;;;10.60;99.90;;;;;;5094246;28;20386;-71
2021/10/14 10:29:14;;;;;;;0.40;0.20;;;10.60;99.90;;;;;;5094620;28;20398;-71
2021/10/14 10:31:49;;;;;;;0.40;0.20;;;10.80;99.90;;;;;;5093598;28;20848;-71
2021/10/14 10:34:56;;;;;;;0.40;0.30;;;11.00;99.90;;;;;;5094284;28;20468;-71
2021/10/14 10:37:30;;;;;;;0.40;0.30;;;11.20;99.90;;;;;;5094126;28;20427;-71
2021/10/14 10:39:56;;;;;;;0.40;0.20;;;11.20;99.90;;;;;;5094130;28;20388;-70
2021/10/14 10:42:30;;;;;;;0.40;0.30;;;11.30;99.90;;;;;;5094057;28;20386;-70
2021/10/14 10:45:07;;;;;;;0.40;0.30;;;11.40;99.90;;;;;;5094299;28;20451;-70
2021/10/14 10:47:55;;;;;;;0.40;0.30;;;11.70;99.90;;;;;;5093536;28;20381;-71
2021/10/14 10:50:28;;;;;;;0.50;0.40;;;11.90;97.90;;;;;;5093975;28;20790;-70
2021/10/14 10:53:34;;;;;;;0.40;0.30;;;11.90;98.60;;;;;;5093430;28;20410;-70
2021/10/14 10:56:00;;;;;;;0.40;0.20;;;12.20;99.80;;;;;;5090877;28;20826;-70
2021/10/14 10:58:31;;;;;;;0.40;0.30;;;12.50;96.40;;;;;;5093637;28;20427;-72
2021/10/14 11:00:58;;;;;;;0.40;0.20;;;12.80;95.00;;;;;;5093488;28;20384;-70
2021/10/14 11:03:26;;;;;;;0.40;0.30;;;12.90;94.90;;;;;;5093800;28;20414;-70
2021/10/14 11:05:51;;;;;;;0.40;0.30;;;13.10;92.80;;;;;;5091614;28;21073;-70
2021/10/14 11:08:22;;;;;;;0.40;0.30;;;14.10;91.60;;;;;;5093498;28;20979;-70
2021/10/14 11:10:50;;;;;;;0.40;0.30;;;14.90;90.90;;;;;;5092870;28;20414;-70
2021/10/14 11:13:16;;;;;;;0.40;0.30;;;15.60;87.90;;;;;;5093537;28;20415;-71
2021/10/14 11:15:55;;;;;;;0.40;0.30;;;15.90;84.20;;;;;;5092636;28;20874;-72
2021/10/14 11:18:23;;;;;;;0.40;0.20;;;15.70;80.40;;;;;;5093216;28;20366;-71
2021/10/14 11:21:01;;;;;;;0.40;0.20;;;15.60;81.70;;;;;;5082184;28;20389;-72
2021/10/14 11:23:29;;;;;;;0.40;0.30;;;14.10;85.00;;;;;;5076168;28;20453;-71
2021/10/14 11:26:23;;;;;;;0.40;0.30;;;15.40;83.50;;;;;;5092284;28;20370;-72
2021/10/14 11:29:11;;;;;;;0.50;0.40;;;15.00;81.60;;;;;;5090275;28;20386;-72
2021/10/14 11:31:58;;;;;;;0.40;0.30;;;16.10;80.00;;;;;;5091668;28;20572;-72
2021/10/14 11:34:26;;;;;;;0.40;0.30;;;15.40;82.50;;;;;;5088075;28;20396;-72
2021/10/14 11:36:52;;;;;;;0.40;0.30;;;16.50;81.10;;;;;;5072701;28;20697;-72
2021/10/14 11:39:19;;;;;;;0.40;0.20;;;17.20;80.40;;;;;;5073393;28;20391;-72
2021/10/14 11:41:54;;;;;;;0.40;0.30;;;16.20;75.50;;;;;;5071824;28;20471;-72
2021/10/14 11:44:20;;;;;;;0.40;0.20;;;15.60;76.20;;;;;;5072542;28;20840;-72
2021/10/14 11:46:46;;;;;;;0.40;0.20;;;16.10;76.30;;;;;;5071362;28;20418;-72
2021/10/14 11:49:12;;;;;;;0.40;0.30;;;16.10;74.80;;;;;;5071804;28;20392;-72
2021/10/14 11:51:38;;;;;;;0.40;0.20;;;16.40;73.40;;;;;;5071282;28;20403;-72
2021/10/14 11:54:13;;;;;;;0.40;0.20;;;16.40;78.30;;;;;;5072450;28;20655;-71
2021/10/14 11:56:50;;;;;;;0.40;0.20;;;17.10;78.60;;;;;;5071499;28;20403;-71
2021/10/14 11:59:22;;;;;;;0.40;0.30;;;17.40;73.50;;;;;;5072355;28;20384;-71
2021/10/14 12:01:54;;;;;;;0.40;0.20;;;17.20;72.00;;;;;;5071039;28;20382;-72
2021/10/14 12:04:44;;;;;;;0.40;0.30;;;17.10;77.60;;;;;;5072062;28;20376;-72
2021/10/14 12:07:15;;;;;;;0.40;0.20;;;17.20;76.10;;;;;;5070975;28;20429;-72
2021/10/14 12:09:41;;;;;;;0.40;0.30;;;16.70;75.20;;;;;;5071452;28;20856;-73
2021/10/14 12:12:08;;;;;;;0.40;0.20;;;16.60;72.60;;;;;;5071826;28;20470;-72
2021/10/14 12:14:36;;;;;;;0.40;0.20;;;17.40;75.60;;;;;;5071662;28;20376;-72
2021/10/14 12:17:16;;;;;;;0.40;0.30;;;17.50;72.30;;;;;;5071078;28;20386;-71
2021/10/14 12:19:50;;;;;;;0.40;0.30;;;17.70;73.70;;;;;;5069686;28;20772;-72
2021/10/14 12:22:18;;;;;;;0.40;0.30;;;16.60;73.80;;;;;;5071218;28;20406;-71
2021/10/14 12:24:56;;;;;;;0.40;0.20;;;17.30;74.40;;;;;;5071102;28;20491;-71
2021/10/14 12:27:23;;;;;;;0.40;0.20;;;15.80;74.70;;;;;;5071590;28;20380;-71
2021/10/14 12:29:50;;;;;;;0.77;0.60;;;16.10;75.10;;;;;;5070318;28;20388;-72
2021/10/14 12:32:19;;;;;;;0.40;0.20;;;16.50;74.70;;;;;;5071450;28;20415;-72
2021/10/14 12:34:57;;;;;;;0.40;0.20;;;16.90;73.50;;;;;;5070197;28;20887;-72
2021/10/14 12:37:28;;;;;;;0.40;0.30;;;16.60;75.20;;;;;;5071120;28;20860;-71
2021/10/14 12:40:14;;;;;;;0.40;0.20;;;16.70;76.30;;;;;;5070585;28;20411;-71
2021/10/14 12:43:27;;;;;;;0.40;0.30;;;16.20;72.50;;;;;;5070563;28;20391;-72
2021/10/14 12:45:54;;;;;;;0.40;0.20;;;16.30;75.90;;;;;;5077013;28;20406;-71
2021/10/14 12:51:18;;;;;;;0.40;0.30;;;16.20;72.70;;;;;;5081312;28;20790;-71
2021/10/14 12:53:44;;;;;;;0.40;0.20;;;16.50;72.80;;;;;;5070412;28;20391;-71
2021/10/14 12:56:11;;;;;;;0.40;0.20;;;16.30;77.90;;;;;;5081517;28;20414;-72
2021/10/14 12:58:37;;;;;;;0.40;0.30;;;16.50;73.40;;;;;;5090218;28;20388;-71
2021/10/14 13:01:10;;;;;;;0.40;0.30;;;16.50;73.80;;;;;;5101253;28;20899;-71